AREA preflight bulletin
Updated "live" 24 Sep 2018, 17:05

back to the map




METAR og TAF


NARSARSUAQ
  AKTUEL BGBW 241650Z 20008KT 9999 FEW030 08/M02 Q0994 RMK 1CU =
  TAF 9 timer BGBW 241422Z 2415/2422 04008KT 9999 FEW025 BKN070 BECMG 2415/2417 SCT030=

QAQORTOQ
  AKTUEL BGJH 241650Z AUTO 07006KT 040V100 //// ///////// 05/M00 Q0993=

PAAMIUT
  AKTUEL BGPT 241650Z AUTO 32012KT 9999NDV OVC053/// 05/02 Q0996=

NARSAQ
  AKTUEL BGNS 241650Z AUTO 29007KT //// ///////// 05/01 Q0994=

NANORTALIK
  AKTUEL

NUUK
  AKTUEL BGGH 241650Z 20006KT 9999 SCT090 BKN110 07/M00 Q0995=
  TAF 9 timer BGGH 241422Z 2415/2422 VRB05KT 9999 SCT100=

KANGERLUSSUAQ
  AKTUEL BGSF 241650Z AUTO 26008KT 9999NDV NCD 06/M07 Q0995=
  TAF 24 timer BGSF 241051Z 2412/2518 06012KT 9999 FEW200 BECMG 2415/2417 24008KT BECMG 2421/2423 6000 -SN BKN030 TEMPO 2423/2518 2000 SN VV008=


SIGMETS:

Ingen SIGMET fundet:

NOTAM/SNOWTAM for operationel use has to be confirmed with the
nearest AIS Briefing Office prior to a flight.

ICAO
BGBW (NARSARSUAQ)

FIR
BGGL

Notam_id:
BGA0443/18

valid from:
1809131326

E) REF AD-2 RNAV (GNSS) Y RWY 06-1 DUE TO TERRAIN WARNING REPORTS ON FINAL, LNAV OCA(H) INCREASED. CAT A INCREASED TO 1800(1688) FT FOR ALL CLIMB GRADIENTS. CAT B INCREASED TO 1800(1688) FT FOR ALL CLIMB GRADIENTS. CAT C INCREASED TO 1800(1688) FT FOR ALL CLIMB GRADIENTS.

valid to:
1810151800


Replacing:
BGA0366/18

ICAO
BGBW (NARSARSUAQ)

FIR
BGGL

Notam_id:
BGA0444/18

valid from:
1809131327

E) REF AD-2 RNAV (GNSS) Z RWY 06-1 DUE TO TERRAIN WARNING REPORTS ON FINAL, LNAV OCA(H) INCREASED. CAT A INCREASED TO 1800(1688) FT FOR ALL CLIMB GRADIENTS. CAT B INCREASED TO 1800(1688) FT FOR ALL CLIMB GRADIENTS.

valid to:
1810151800


Replacing:
BGA0365/18

ICAO
BGBW (NARSARSUAQ)

FIR
BGGL

Notam_id:
BGA0442/18

valid from:
1809131325

E) WIND DATA FM THR24 PERIODICALLY NOT AVAILABLE. WHEN UNAVBL WIND WILL BE EST OR TAKEN FM THR06.

valid to:
1810151800


Replacing:
BGA0417/18

ICAO
BGJH (QAQORTOQ)

FIR
BGGL

Notam_id:
BGC0060/18

valid from:
1810110000

E) TRIGGER NOTAM - PERM AIP AIRAC AMDT 09/18 WEF 11 OCT 2018. CHANGE TO TEL AND E-MAIL. FAX WITHDRAWN.

valid to:
1810242359




ICAO
BGNS (NARSAQ)

FIR
BGGL

Notam_id:
BGC0059/18

valid from:
1810110000

E) TRIGGER NOTAM - PERM AIP AIRAC AMDT 09/18 WEF 11 OCT 2018. CHANGE TO TEL AND E-MAIL.

valid to:
1810242359




ICAO
BGNN (NANORTALIK)

FIR
BGGL

Notam_id:
BGC0058/18

valid from:
1810110000

E) TRIGGER NOTAM - PERM AIP AIRAC AMDT 09/18 WEF 11 OCT 2018. CHANGE TO TEL AND E-MAIL. FAX WITHDRAWN.

valid to:
1810242359




ICAO
BGGL (SONDRESTROM FIR)

FIR
BGGL

Notam_id:
BGA0299/18

valid from:
1809130000

E) AIP AIRAC AMDT EFFECTIVE DATE 13 SEP 2018: NIL.

valid to:
1809262359




ICAO
BGGL (SONDRESTROM FIR)

FIR
BGGL

Notam_id:
BGA0405/18

valid from:
1809010501

E) CHECKLIST YEAR=2017 0269 YEAR=2018 0199 0213 0214 0215 0299 0365 0366 0383 0389 0393 0394 0401 0402 0403 LATEST PUBLICATIONS AIP AIRAC AMDT IFR 009/2018 EFFECTIVE DATE 11 OCT 18 AIP AMDT IFR 003/2018 EFFECTIVE DATE 15 MAR 18 AIP SUP IFR 006/2018 EFFECTIVE DATE 18 JUN 18 AIC IFR A003/2018 EFFECTIVE DATE 29 AUG 18

valid to:
1810010501EST


Replacing:
BGA0327/18

ICAO
BGGL (SONDRESTROM FIR)

FIR
BGGL

Notam_id:
BGB0731/18

valid from:
1809010502

E) CHECKLIST YEAR=2017 0740 0930 YEAR=2018 0384 0511 0523 0605 0618 0622 0631 0659 0679 0688 0696 0697 0698 0699 0704 0715 0716 0717 0721 0722 0726 0727 0728 0730 LATEST PUBLICATIONS AIP AIRAC AMDT IFR 009/2018 EFFECTIVE DATE 11 OCT 18 AIP AMDT IFR 003/2018 EFFECTIVE DATE 15 MAR 18 AIP SUP IFR 006/2018 EFFECTIVE DATE 18 JUN 18 AIC IFR A003/2018 EFFECTIVE DATE 29 AUG 18

valid to:
1810010502EST


Replacing:
BGB0641/18

ICAO
BGGL (SONDRESTROM FIR)

FIR
BGGL

Notam_id:
BGC0062/18

valid from:
1809010502

E) CHECKLIST YEAR=2018 0058 0059 0060 LATEST PUBLICATIONS AIP AIRAC AMDT IFR 009/2018 EFFECTIVE DATE 11 OCT 18 AIP AMDT IFR 003/2018 EFFECTIVE DATE 15 MAR 18 AIP SUP IFR 006/2018 EFFECTIVE DATE 18 JUN 18 AIC IFR A003/2018 EFFECTIVE DATE 29 AUG 18

valid to:
1810010502EST


Replacing:
BGC0056/18

ICAO
BGGL (SONDRESTROM FIR)

FIR
BGGL

Notam_id:
BGB0704/18

valid from:
1808241401

E) OBST LIGHTS ON MAST 213 ON THE SOUTHERN PART OF TUNULLIARFIK OUT OF SERVICE

valid to:
1810011800




ICAO
BGGL (SONDRESTROM FIR)

FIR
BGGL

Notam_id:
BGA0199/18

valid from:
1805310935

E) GREENLAND AND ADJACENT WATERS ARE CONSIDERED HOSTILE AREAS BY THE CIVIL AVIATION AUTHORITY (TBST). THREE MAJOR REASONS CONTRIBUTE TO DEFINING THE AREA AS HOSTILE: A SAFE FORCED LANDING CANNOT BE ACCOMPLISHED BECAUSE THE SURFACE IS INADEQUATE. THE HELICOPTER OCCUPANTS CANNOT BE ADEQUATELY PROTECTED FROM THE ELEMENTS. SEARCH AND RESCUE RESPONSE/CAPABILITY ARE NOT PROVIDED CONSISTENT WITH ANTICIPATED EXPOSURE.

valid to:
PERM




ICAO
BGGH (NUUK)

FIR
BGGL

Notam_id:
BGB0511/18

valid from:
1806281450

E) BGGH AFIS FREQ 119.100 MHZ NO COVERAGE IN SECTOR BETWEEN 060 DEG MAG AND 210 DEG MAG BELOW FL100.

valid to:
1809301900EST


Replacing:
BGB0266/18

ICAO
BGGH (NUUK)

FIR
BGGL

Notam_id:
BGB0930/17

valid from:
1712181907

E) ERROR IN CHART FOR RNAV (GNSS) APPROACH RWY 23. WITH REF AIP GREENLAND AD 2-BGGH RNAV (GNSS) RWY 23-1. NEW OCA(H) LNAV/VNAV CLIMB 2.5 PERCENT CAT A TO READ 1310 (1029) INSTEAD OF 1230. NEW OCA(H) LNAV/VNAV CLIMB 2.5 PERCENT CAT B TO READ 1340 (1059) INSTEAD OF 1250. NEW OCA(H) LNAV/VNAV CLIMB 5.0 PERCENT CAT A TO READ 1300 (1019) INSTEAD OF 1070. NEW OCA(H) LNAV/VNAV CLIMB 5.0 PERCENT CAT B TO READ 1320 (1039) INSTEAD OF 1110. NEW OCA(H) LNAV CLIMB 5.0 PERCENT CAT A TO READ 1150 (869) IN-STEAD OF 1130. NEW OCA(H) LNAV CLIMB 5.0 PERCENT CAT B TO READ 1240 (959) INSTEAD OF 1230.

valid to:
PERM




ICAO
BGGH (NUUK)

FIR
BGGL

Notam_id:
BGB0715/18

valid from:
1808301353

E) CRANE RAISED AT PSN 641124N0514021W (AIR GREENLAND HANGAR AREA). TOP 82FT AGL.

valid to:
1809301900


Replacing:
BGB0639/18

ICAO
BGGH (NUUK)

FIR
BGGL

Notam_id:
BGA0451/18

valid from:
1809211000

E) REDUCED SNOW REMOVAL CAPACITY. ONLY ONE SWEEPER OUT OF TWO IS OPERATIONAL.

valid to:
1812151500EST




ICAO
BGSF (KANGERLUSSUAQ)

FIR
BGGL

Notam_id:
BGA0431/18

valid from:
1809101703

E) PAPI LIGHTS ARE SET ON 10 PERCENT INTENSITY. 20 MINUTES PRIOR NOTICE REQUIRED TO CHANGE SETTING.

valid to:
1809301800EST


Replacing:
BGA0213/18

ICAO
BGSF (KANGERLUSSUAQ)

FIR
BGGL

Notam_id:
BGA0432/18

valid from:
1809101705

E) APCH LIGHTS ARE SET ON 10 PERCENT INTENSITY. 20 MINUTES PRIOR NOTICE REQUIRED TO CHANGE SETTING.

valid to:
1809301800EST


Replacing:
BGA0214/18

ICAO
BGSF (KANGERLUSSUAQ)

FIR
BGGL

Notam_id:
BGA0433/18

valid from:
1809101705

E) RWY EDGE LIGHTS ARE SET ON 10 PERCENT INTENSITY. 20 MINUTES PRIOR NOTICE REQUIRED TO CHANGE SETTING.

valid to:
1809301800EST


Replacing:
BGA0215/18

ICAO
BGSF (KANGERLUSSUAQ)

FIR
BGGL

Notam_id:
BGA0445/18

valid from:
1809131554

E) BGSF FBO E-MAIL ADDRESS: BGSF(AT)MIT.GL REF AIP GRL/AD 2 - BGSF, GEN 3.3 - 2 AND GEN 3.4 - 3.

valid to:
PERM




ICAO
BGSF (KANGERLUSSUAQ)

FIR
BGGL

Notam_id:
BGA0420/18

valid from:
1809071508

E) RWY MAINT IS BEING CONDUCTED. LANDINGS: MAINT WILL HAVE NO EFFECT. DEPARTURES: AIRCRAFT MAY EXPECT 09-B OR 27-C FOR DEPARTURE, ADVICE ATC PRIOR TO START UP IF FULL RWY LENGTH OR RWY 27 IS REQUIRED. FOR MORE INFORMATION: CONTACT ARO TEL. 00299 382905

valid to:
1809261900EST


Replacing:
BGA0419/18


Copyright Naviair   2003-2016